Accueil
METAR-TAF:

METAR-TAF

Aéroports :

Buochs, Suisse

latitude: 46-58-28N, longitude: 8-23-49E, altitude: 449 m

Observation

Le bulletin a été fait il y a 33 minutes, à 17:50 UTC
Vent 1 kt de nord-ouest
Température 0°C
Humidité 100%
Pression 1017 hPa
Visibilité 10 km ou plus
Nuages fragmentés
neige faible

METAR: LSZC 161750Z AUTO 32001KT 9999 -SN BKN/// 00/M00 Q1017

Heure: 19:23 (18:23 UTC)

Prévision

Le bulletin a été fait il y a 27 heures et 58 minutes, à 14:25 UTC
Prévision valable du 15 à 15 UTC au 15 à 24 UTC
Vent 3 kt de direction variable
Visibilité 10 km ou plus
Nuages fragmentés à une hauteur de 6000 ft
Probabilité 30% :
Temporairement
du 15 à 18 UTC au 15 à 24 UTC
Visibilité: 2000 m
Nuages fragmentés à une hauteur de 1200 ft
faibles averses de neige

TAF: LSZC 151425Z 1515/1524 VRB03KT 9999 BKN060 PROB30 TEMPO 1518/1524 2000 -SHSN BKN012

Observations et prévisions météorologiques de plus de 4000 aéroports (messages METAR et TAF).

Les stations disponibles sont représentées par des disques jaunes et rouges sur la carte.

Passer la souris dessus pour voir le nom de la station.

Cliquer dessus pour voir les observations et prévisions météorologiques.

Pour changer de carte: cliquez sur les boutons verts avec une croix noire pour zoomer, sur le bouton vert avec un tiret pour effectuer un zoom arrière, ou sur les flèches vertes pour les cartes adjacentes.


METAR-TAF: